Time;durP1;ratioP1;P1;durP2;ratioP2;P2;SDS_P1;SDS_P2;PMS_P1;PMS_P2;Temp;Humidity;BMP_temperature;BMP_pressure;BME280_temperature;BME280_humidity;BME280_pressure;Samples;Min_cycle;Max_cycle;Signal;HPM_P1;HPM_P2
2021/06/26 00:00:54;;;;;;;;;;;;;;;;;;5023737;28;19917;-80
2021/06/26 00:03:23;;;;;;;;;;;;;;;;;;5037647;28;19925;-80
2021/06/26 00:05:48;;;;;;;;;;;;;;;;;;5037894;28;19912;-80
2021/06/26 00:08:14;;;;;;;;;;;;;;;;;;5042786;28;19982;-80
2021/06/26 00:10:41;;;;;;;;;;;;;;;;;;5035689;28;19924;-80
2021/06/26 00:13:06;;;;;;;;;;;;;;;;;;5032826;28;20275;-80
2021/06/26 00:15:31;;;;;;;;;;;;;;;;;;5037595;28;19924;-80
2021/06/26 00:17:56;;;;;;;;;;;;;;;;;;5046478;28;20042;-80
2021/06/26 00:20:21;;;;;;;;;;;;;;;;;;5053411;28;20287;-80
2021/06/26 00:22:47;;;;;;;;;;;;;;;;;;5034046;28;19931;-80
2021/06/26 00:25:12;;;;;;;;;;;;;;;;;;5035306;28;19917;-80
2021/06/26 00:27:37;;;;;;;;;;;;;;;;;;5032796;28;19921;-80
2021/06/26 00:30:03;;;;;;;;;;;;;;;;;;5031681;28;20414;-80
2021/06/26 00:32:28;;;;;;;;;;;;;;;;;;5036379;28;20007;-80
2021/06/26 00:34:53;;;;;;;;;;;;;;;;;;5036849;28;19982;-80
2021/06/26 00:37:18;;;;;;;;;;;;;;;;;;5041879;28;20331;-80
2021/06/26 00:39:43;;;;;;;;;;;;;;;;;;5028882;28;19925;-80
2021/06/26 00:42:09;;;;;;;;;;;;;;;;;;5035340;28;19917;-80
2021/06/26 00:44:34;;;;;;;;;;;;;;;;;;5053836;28;19935;-80
2021/06/26 00:47:05;;;;;;;;;;;;;;;;;;5047569;28;19928;-80
2021/06/26 00:49:30;;;;;;;;;;;;;;;;;;5018585;28;19917;-80
2021/06/26 00:51:55;;;;;;;;;;;;;;;;;;5033375;28;20360;-80
2021/06/26 00:54:20;;;;;;;;;;;;;;;;;;5041568;28;19971;-80
2021/06/26 00:56:46;;;;;;;;;;;;;;;;;;5004076;28;19957;-80
2021/06/26 00:59:11;;;;;;;;;;;;;;;;;;5036371;28;19921;-80
2021/06/26 01:01:36;;;;;;;;;;;;;;;;;;5041767;28;19956;-80
2021/06/26 01:04:01;;;;;;;;;;;;;;;;;;5034601;28;19917;-79
2021/06/26 01:06:27;;;;;;;;;;;;;;;;;;5016805;28;19913;-79
2021/06/26 01:08:52;;;;;;;;;;;;;;;;;;5020161;28;20279;-80
2021/06/26 01:11:17;;;;;;;;;;;;;;;;;;5049688;28;19917;-79
2021/06/26 01:13:42;;;;;;;;;;;;;;;;;;5033953;28;19974;-80
2021/06/26 01:16:08;;;;;;;;;;;;;;;;;;5051104;28;19917;-80
2021/06/26 01:18:33;;;;;;;;;;;;;;;;;;5038715;28;19928;-80
2021/06/26 01:20:58;;;;;;;;;;;;;;;;;;5026793;28;20013;-80
2021/06/26 01:23:25;;;;;;;;;;;;;;;;;;5030488;28;20333;-80
2021/06/26 01:25:50;;;;;;;;;;;;;;;;;;5035019;28;19925;-80
2021/06/26 01:28:15;;;;;;;;;;;;;;;;;;5027581;28;19920;-79
2021/06/26 01:30:40;;;;;;;;;;;;;;;;;;5034037;28;19924;-79
2021/06/26 01:33:06;;;;;;;;;;;;;;;;;;5034295;28;19921;-80
2021/06/26 01:35:31;;;;;;;;;;;;;;;;;;5037742;28;20372;-79
2021/06/26 01:37:56;;;;;;;;;;;;;;;;;;5045048;28;19930;-79
2021/06/26 01:40:22;;;;;;;;;;;;;;;;;;5035335;28;19983;-79
2021/06/26 01:42:48;;;;;;;;;;;;;;;;;;5024371;28;19970;-80
2021/06/26 01:45:13;;;;;;;;;;;;;;;;;;5041064;28;19901;-80
2021/06/26 01:47:44;;;;;;;;;;;;;;;;;;5037778;28;19920;-80
2021/06/26 01:50:09;;;;;;;;;;;;;;;;;;5031679;28;19924;-80
2021/06/26 01:52:34;;;;;;;;;;;;;;;;;;5018965;28;19916;-79
2021/06/26 01:54:59;;;;;;;;;;;;;;;;;;5052115;28;20391;-80
2021/06/26 01:57:24;;;;;;;;;;;;;;;;;;5029753;28;19966;-80
2021/06/26 01:59:50;;;;;;;;;;;;;;;;;;5038390;28;20007;-80
2021/06/26 02:02:15;;;;;;;;;;;;;;;;;;5020647;28;19942;-80
2021/06/26 02:04:40;;;;;;;;;;;;;;;;;;5030313;28;19947;-80
2021/06/26 02:07:05;;;;;;;;;;;;;;;;;;5050674;28;20023;-80
2021/06/26 02:09:31;;;;;;;;;;;;;;;;;;5040108;28;20290;-80
2021/06/26 02:11:56;;;;;;;;;;;;;;;;;;5035924;28;19923;-80
2021/06/26 02:14:21;;;;;;;;;;;;;;;;;;5035346;28;19921;-80
2021/06/26 02:16:46;;;;;;;;;;;;;;;;;;5036673;28;19917;-80
2021/06/26 02:19:11;;;;;;;;;;;;;;;;;;5040970;28;19917;-79
2021/06/26 02:21:37;;;;;;;;;;;;;;;;;;5031996;28;19917;-80
2021/06/26 02:24:02;;;;;;;;;;;;;;;;;;5019548;28;20295;-79
2021/06/26 02:26:27;;;;;;;;;;;;;;;;;;5051185;28;19923;-79
2021/06/26 02:28:52;;;;;;;;;;;;;;;;;;5025299;28;19921;-79
2021/06/26 02:31:17;;;;;;;;;;;;;;;;;;5040573;28;19923;-79
2021/06/26 02:33:43;;;;;;;;;;;;;;;;;;5037049;28;19917;-79
2021/06/26 02:36:08;;;;;;;;;;;;;;;;;;5022042;28;19913;-79
2021/06/26 02:38:33;;;;;;;;;;;;;;;;;;5022999;28;20288;-79
2021/06/26 02:40:58;;;;;;;;;;;;;;;;;;5055280;28;20330;-79
2021/06/26 02:43:24;;;;;;;;;;;;;;;;;;5030284;28;19917;-80
2021/06/26 02:45:49;;;;;;;;;;;;;;;;;;5045485;28;19921;-79
2021/06/26 02:48:14;;;;;;;;;;;;;;;;;;5046061;28;19921;-79
2021/06/26 02:50:40;;;;;;;;;;;;;;;;;;5037299;28;19916;-79
2021/06/26 02:53:05;;;;;;;;;;;;;;;;;;5018665;28;19921;-79
2021/06/26 02:55:30;;;;;;;;;;;;;;;;;;5035229;28;20013;-79
2021/06/26 02:57:57;;;;;;;;;;;;;;;;;;5044508;28;19916;-79
2021/06/26 03:00:22;;;;;;;;;;;;;;;;;;5040971;28;20047;-79
2021/06/26 03:02:47;;;;;;;;;;;;;;;;;;5029694;28;19956;-79
2021/06/26 03:05:13;;;;;;;;;;;;;;;;;;5045237;28;19924;-79
2021/06/26 03:07:38;;;;;;;;;;;;;;;;;;5035310;28;19949;-80
2021/06/26 03:10:03;;;;;;;;;;;;;;;;;;5020317;28;20004;-79
2021/06/26 03:12:28;;;;;;;;;;;;;;;;;;5027829;28;19925;-80
2021/06/26 03:14:54;;;;;;;;;;;;;;;;;;5042677;28;20338;-79
2021/06/26 03:17:19;;;;;;;;;;;;;;;;;;5036601;28;19917;-79
2021/06/26 03:19:44;;;;;;;;;;;;;;;;;;5037002;28;20386;-79
2021/06/26 03:22:09;;;;;;;;;;;;;;;;;;5044052;28;19923;-79
2021/06/26 03:24:35;;;;;;;;;;;;;;;;;;5055537;28;20392;-79
2021/06/26 03:27:00;;;;;;;;;;;;;;;;;;5029039;28;19921;-79
2021/06/26 03:29:25;;;;;;;;;;;;;;;;;;5035323;28;19920;-79
2021/06/26 03:31:50;;;;;;;;;;;;;;;;;;5023597;28;20268;-79
2021/06/26 03:34:15;;;;;;;;;;;;;;;;;;5019351;28;19987;-79
2021/06/26 03:36:41;;;;;;;;;;;;;;;;;;5035052;28;19917;-79
2021/06/26 03:39:06;;;;;;;;;;;;;;;;;;5033927;28;19913;-79
2021/06/26 03:41:31;;;;;;;;;;;;;;;;;;5023364;28;19917;-79
2021/06/26 03:44:01;;;;;;;;;;;;;;;;;;5018753;28;19917;-79
2021/06/26 03:46:26;;;;;;;;;;;;;;;;;;5043609;28;19927;-79
2021/06/26 03:48:51;;;;;;;;;;;;;;;;;;5039233;28;20011;-79
2021/06/26 03:51:16;;;;;;;;;;;;;;;;;;5047797;28;19916;-79
2021/06/26 03:53:42;;;;;;;;;;;;;;;;;;5027832;28;20447;-79
2021/06/26 03:56:07;;;;;;;;;;;;;;;;;;5028813;28;19917;-79
2021/06/26 03:58:32;;;;;;;;;;;;;;;;;;5019322;28;20004;-79
2021/06/26 04:00:57;;;;;;;;;;;;;;;;;;5019136;28;19929;-79
2021/06/26 04:03:23;;;;;;;;;;;;;;;;;;5034715;28;19920;-79
2021/06/26 04:05:48;;;;;;;;;;;;;;;;;;5024122;28;19921;-79
2021/06/26 04:08:13;;;;;;;;;;;;;;;;;;5044806;28;20019;-79
2021/06/26 04:10:39;;;;;;;;;;;;;;;;;;5049828;28;19923;-79
2021/06/26 04:15:33;;;;;;;;;;;;;;;;;;5053736;28;19925;-84
2021/06/26 04:17:58;;;;;;;;;;;;;;;;;;5011949;28;19963;-84
2021/06/26 04:20:24;;;;;;;;;;;;;;;;;;5038171;28;20434;-83
2021/06/26 04:22:49;;;;;;;;;;;;;;;;;;5006182;28;19944;-84
2021/06/26 04:25:14;;;;;;;;;;;;;;;;;;5038509;28;19913;-83
2021/06/26 04:27:40;;;;;;;;;;;;;;;;;;4999917;28;19971;-84
2021/06/26 04:30:05;;;;;;;;;;;;;;;;;;5006991;28;20000;-84
2021/06/26 04:32:31;;;;;;;;;;;;;;;;;;5007423;28;19949;-84
2021/06/26 04:34:56;;;;;;;;;;;;;;;;;;5018694;28;19939;-84
2021/06/26 04:37:22;;;;;;;;;;;;;;;;;;5002765;28;19924;-83
2021/06/26 04:39:47;;;;;;;;;;;;;;;;;;5016955;28;19924;-84
2021/06/26 04:42:12;;;;;;;;;;;;;;;;;;5014091;28;20296;-84
2021/06/26 04:44:37;;;;;;;;;;;;;;;;;;5004058;28;20028;-84
2021/06/26 04:47:03;;;;;;;;;;;;;;;;;;4999568;28;19917;-84
2021/06/26 04:49:28;;;;;;;;;;;;;;;;;;4986580;28;20342;-84
2021/06/26 04:51:53;;;;;;;;;;;;;;;;;;5002770;28;19970;-84
2021/06/26 04:54:18;;;;;;;;;;;;;;;;;;5005082;28;19917;-84
2021/06/26 04:56:44;;;;;;;;;;;;;;;;;;4993610;28;19968;-84
2021/06/26 04:59:09;;;;;;;;;;;;;;;;;;5019792;28;19921;-84
2021/06/26 05:01:34;;;;;;;;;;;;;;;;;;4999502;28;19917;-84
2021/06/26 05:04:00;;;;;;;;;;;;;;;;;;5010380;28;19917;-84
2021/06/26 05:06:25;;;;;;;;;;;;;;;;;;4986238;28;19913;-84
2021/06/26 05:08:50;;;;;;;;;;;;;;;;;;4986068;28;20376;-84
2021/06/26 05:11:15;;;;;;;;;;;;;;;;;;5012339;28;19923;-84
2021/06/26 05:13:41;;;;;;;;;;;;;;;;;;5022251;28;19917;-84
2021/06/26 05:16:06;;;;;;;;;;;;;;;;;;4985101;28;20411;-84
2021/06/26 05:18:31;;;;;;;;;;;;;;;;;;5011423;28;19917;-84
2021/06/26 05:20:56;;;;;;;;;;;;;;;;;;5034737;28;19971;-84
2021/06/26 05:23:21;;;;;;;;;;;;;;;;;;5020010;28;19917;-84
2021/06/26 05:25:47;;;;;;;;;;;;;;;;;;5003717;28;19921;-84
2021/06/26 05:28:12;;;;;;;;;;;;;;;;;;5015178;28;19921;-84
2021/06/26 05:30:37;;;;;;;;;;;;;;;;;;5012716;28;19928;-84
2021/06/26 05:33:03;;;;;;;;;;;;;;;;;;5029245;28;19924;-83
2021/06/26 05:35:28;;;;;;;;;;;;;;;;;;4998938;28;19917;-83
2021/06/26 05:37:53;;;;;;;;;;;;;;;;;;5033340;28;19924;-84
2021/06/26 05:40:18;;;;;;;;;;;;;;;;;;5021713;28;19921;-84
2021/06/26 05:42:43;;;;;;;;;;;;;;;;;;4987316;28;19917;-84
2021/06/26 05:45:09;;;;;;;;;;;;;;;;;;5039899;28;19917;-84
2021/06/26 05:47:34;;;;;;;;;;;;;;;;;;5036375;28;19921;-84
2021/06/26 05:49:59;;;;;;;;;;;;;;;;;;5029010;28;19917;-83
2021/06/26 05:52:24;;;;;;;;;;;;;;;;;;5005787;28;19968;-82
2021/06/26 05:54:49;;;;;;;;;;;;;;;;;;5006002;28;19913;-83
2021/06/26 05:57:15;;;;;;;;;;;;;;;;;;5005867;28;19920;-83
2021/06/26 05:59:40;;;;;;;;;;;;;;;;;;4989810;28;20379;-83
2021/06/26 06:02:12;;;;;;;;;;;;;;;;;;5023237;28;19913;-83
2021/06/26 06:04:37;;;;;;;;;;;;;;;;;;5025690;28;19913;-83
2021/06/26 06:07:02;;;;;;;;;;;;;;;;;;5009746;28;19924;-84
2021/06/26 06:09:27;;;;;;;;;;;;;;;;;;5018294;28;19921;-83
2021/06/26 06:11:53;;;;;;;;;;;;;;;;;;5017780;28;19917;-83
2021/06/26 06:14:18;;;;;;;;;;;;;;;;;;4942162;28;1774797;-83
2021/06/26 06:16:43;;;;;;;;;;;;;;;;;;5001594;28;19966;-83
2021/06/26 06:19:08;;;;;;;;;;;;;;;;;;5038382;28;19923;-83
2021/06/26 06:21:33;;;;;;;;;;;;;;;;;;5040135;28;19913;-83
2021/06/26 06:24:00;;;;;;;;;;;;;;;;;;5025923;28;19999;-83
2021/06/26 06:26:25;;;;;;;;;;;;;;;;;;4987518;28;19964;-83
2021/06/26 06:28:50;;;;;;;;;;;;;;;;;;4987426;28;19917;-83
2021/06/26 06:31:16;;;;;;;;;;;;;;;;;;5000648;28;20445;-83
2021/06/26 06:33:41;;;;;;;;;;;;;;;;;;5033603;28;19921;-83
2021/06/26 06:36:07;;;;;;;;;;;;;;;;;;5037250;28;19932;-82
2021/06/26 06:38:33;;;;;;;;;;;;;;;;;;5014444;28;20431;-83
2021/06/26 06:40:58;;;;;;;;;;;;;;;;;;5023744;28;19917;-83
2021/06/26 06:43:24;;;;;;;;;;;;;;;;;;5019522;28;19976;-82
2021/06/26 06:45:49;;;;;;;;;;;;;;;;;;5003067;28;19917;-82
2021/06/26 06:48:14;;;;;;;;;;;;;;;;;;5021926;28;19928;-82
2021/06/26 06:50:39;;;;;;;;;;;;;;;;;;5021689;28;19920;-81
2021/06/26 06:53:04;;;;;;;;;;;;;;;;;;5038641;28;19924;-80
2021/06/26 06:55:30;;;;;;;;;;;;;;;;;;5029563;28;19967;-80
2021/06/26 06:57:55;;;;;;;;;;;;;;;;;;5012429;23;20013;-80
2021/06/26 07:00:20;;;;;;;;;;;;;;;;;;4983572;28;19933;-80
2021/06/26 07:02:45;;;;;;;;;;;;;;;;;;4989720;28;20017;-80
2021/06/26 07:05:10;;;;;;;;;;;;;;;;;;4981496;28;19921;-79
2021/06/26 07:07:36;;;;;;;;;;;;;;;;;;4983682;28;19919;-80
2021/06/26 07:10:01;;;;;;;;;;;;;;;;;;5000767;28;19928;-79
2021/06/26 07:12:26;;;;;;;;;;;;;;;;;;4982307;28;19989;-80
2021/06/26 07:14:51;;;;;;;;;;;;;;;;;;4980568;28;20332;-79
2021/06/26 07:17:17;;;;;;;;;;;;;;;;;;5004510;28;19914;-79
2021/06/26 07:19:42;;;;;;;;;;;;;;;;;;5002226;28;19925;-79
2021/06/26 07:22:07;;;;;;;;;;;;;;;;;;5003391;28;19918;-79
2021/06/26 07:24:32;;;;;;;;;;;;;;;;;;5002537;28;20419;-78
2021/06/26 07:26:57;;;;;;;;;;;;;;;;;;5005988;28;19918;-78
2021/06/26 07:29:23;;;;;;;;;;;;;;;;;;4988295;28;19925;-80
2021/06/26 07:31:48;;;;;;;;;;;;;;;;;;4985042;28;19925;-80
2021/06/26 07:34:13;;;;;;;;;;;;;;;;;;4987856;28;20301;-81
2021/06/26 07:36:39;;;;;;;;;;;;;;;;;;5001073;28;20289;-81
2021/06/26 07:39:04;;;;;;;;;;;;;;;;;;4999421;28;20004;-81
2021/06/26 07:41:29;;;;;;;;;;;;;;;;;;4999918;28;19945;-81
2021/06/26 07:43:55;;;;;;;;;;;;;;;;;;4999122;28;19921;-81
2021/06/26 07:46:20;;;;;;;;;;;;;;;;;;4983365;28;19921;-81
2021/06/26 07:48:45;;;;;;;;;;;;;;;;;;4996731;28;19925;-82
2021/06/26 07:51:11;;;;;;;;;;;;;;;;;;4983474;28;20369;-81
2021/06/26 07:53:36;;;;;;;;;;;;;;;;;;5002395;28;19917;-81
2021/06/26 07:56:01;;;;;;;;;;;;;;;;;;5003696;28;19995;-81
2021/06/26 07:58:27;;;;;;;;;;;;;;;;;;4987582;28;19918;-80
2021/06/26 08:00:52;;;;;;;;;;;;;;;;;;5001162;28;19920;-80
2021/06/26 08:03:18;;;;;;;;;;;;;;;;;;4984043;28;20348;-80
2021/06/26 08:05:43;;;;;;;;;;;;;;;;;;4966317;28;19921;-81
2021/06/26 08:08:08;;;;;;;;;;;;;;;;;;4987028;28;20032;-82
2021/06/26 08:10:33;;;;;;;;;;;;;;;;;;4979916;28;19922;-81
2021/06/26 08:12:59;;;;;;;;;;;;;;;;;;4988196;28;20281;-80
2021/06/26 08:15:24;;;;;;;;;;;;;;;;;;4975980;28;19922;-81
2021/06/26 08:17:49;;;;;;;;;;;;;;;;;;4987080;28;19960;-81
2021/06/26 08:20:14;;;;;;;;;;;;;;;;;;4987135;28;19913;-80
2021/06/26 08:22:40;;;;;;;;;;;;;;;;;;5003274;28;20006;-81
2021/06/26 08:25:06;;;;;;;;;;;;;;;;;;4988125;28;20277;-81
2021/06/26 08:27:31;;;;;;;;;;;;;;;;;;4988100;28;19965;-81
2021/06/26 08:29:56;;;;;;;;;;;;;;;;;;4981278;28;19918;-81
2021/06/26 08:32:21;;;;;;;;;;;;;;;;;;5002615;28;20309;-80
2021/06/26 08:34:47;;;;;;;;;;;;;;;;;;4984340;28;19924;-81
2021/06/26 08:37:12;;;;;;;;;;;;;;;;;;4996099;28;19918;-79
2021/06/26 08:39:37;;;;;;;;;;;;;;;;;;4997695;28;19968;-81
2021/06/26 08:42:02;;;;;;;;;;;;;;;;;;4997944;28;19964;-81
2021/06/26 08:44:27;;;;;;;;;;;;;;;;;;4999667;28;19914;-84
2021/06/26 08:46:53;;;;;;;;;;;;;;;;;;4986408;28;20439;-82
2021/06/26 08:49:18;;;;;;;;;;;;;;;;;;4984833;28;19922;-82
2021/06/26 08:51:43;;;;;;;;;;;;;;;;;;4981437;28;20371;-84
2021/06/26 08:54:16;;;;;;;;;;;;;;;;;;4969979;28;19918;-84
2021/06/26 08:56:41;;;;;;;;;;;;;;;;;;4979796;28;19921;-84
2021/06/26 08:59:06;;;;;;;;;;;;;;;;;;4983581;28;19918;-83
2021/06/26 09:01:33;;;;;;;;;;;;;;;;;;4983765;28;19914;-84
2021/06/26 09:04:05;;;;;;;;;;;;;;;;;;4991160;28;20324;-82
2021/06/26 09:06:33;;;;;;;;;;;;;;;;;;4985828;28;19920;-82
2021/06/26 09:08:58;;;;;;;;;;;;;;;;;;4985247;28;19945;-82
2021/06/26 09:11:25;;;;;;;;;;;;;;;;;;4999338;28;19925;-80
2021/06/26 09:13:50;;;;;;;;;;;;;;;;;;4986573;28;20287;-82
2021/06/26 09:16:16;;;;;;;;;;;;;;;;;;4990441;28;19957;-82
2021/06/26 09:18:44;;;;;;;;;;;;;;;;;;4989685;28;20017;-82
2021/06/26 09:21:17;;;;;;;;;;;;;;;;;;5008145;28;20001;-82
2021/06/26 09:23:43;;;;;;;;;;;;;;;;;;5007990;28;19914;-83
2021/06/26 09:26:10;;;;;;;;;;;;;;;;;;4970122;28;20378;-82
2021/06/26 09:28:35;;;;;;;;;;;;;;;;;;4969544;28;19918;-82
2021/06/26 09:31:01;;;;;;;;;;;;;;;;;;4970605;28;20022;-82
2021/06/26 09:33:26;;;;;;;;;;;;;;;;;;5003445;28;20301;-82
2021/06/26 09:36:24;;;;;;;;;;;;;;;;;;4987647;28;19968;-83
2021/06/26 09:38:59;;;;;;;;;;;;;;;;;;4975234;28;19941;-84
2021/06/26 09:41:24;;;;;;;;;;;;;;;;;;4984408;28;19960;-84
2021/06/26 09:43:50;;;;;;;;;;;;;;;;;;4986380;28;19918;-84
2021/06/26 09:46:15;;;;;;;;;;;;;;;;;;4984933;28;19937;-84
2021/06/26 09:48:47;;;;;;;;;;;;;;;;;;5000698;28;19922;-84
2021/06/26 09:51:21;;;;;;;;;;;;;;;;;;4985057;28;19915;-84
2021/06/26 09:54:00;;;;;;;;;;;;;;;;;;4981245;28;19922;-84
2021/06/26 09:56:37;;;;;;;;;;;;;;;;;;4991473;28;20020;-84
2021/06/26 09:59:02;;;;;;;;;;;;;;;;;;5001689;28;19922;-84
2021/06/26 10:01:28;;;;;;;;;;;;;;;;;;5001641;28;19914;-85
2021/06/26 10:03:53;;;;;;;;;;;;;;;;;;4970812;28;20285;-84
2021/06/26 10:06:20;;;;;;;;;;;;;;;;;;4965164;28;19914;-84
2021/06/26 10:08:45;;;;;;;;;;;;;;;;;;4980704;28;19934;-85
2021/06/26 10:11:11;;;;;;;;;;;;;;;;;;4964483;28;19918;-85
2021/06/26 10:13:40;;;;;;;;;;;;;;;;;;4981153;28;19914;-84
2021/06/26 10:16:05;;;;;;;;;;;;;;;;;;4980025;28;19921;-84
2021/06/26 10:18:30;;;;;;;;;;;;;;;;;;4964206;28;20351;-84
2021/06/26 10:20:56;;;;;;;;;;;;;;;;;;4963246;28;19921;-84
2021/06/26 10:23:21;;;;;;;;;;;;;;;;;;4962971;28;20301;-85
2021/06/26 10:25:46;;;;;;;;;;;;;;;;;;4962808;28;20354;-85
2021/06/26 10:28:13;;;;;;;;;;;;;;;;;;4979225;28;19929;-84
2021/06/26 10:30:38;;;;;;;;;;;;;;;;;;4962891;28;20348;-84
2021/06/26 10:33:05;;;;;;;;;;;;;;;;;;4963805;28;19987;-84
2021/06/26 10:35:31;;;;;;;;;;;;;;;;;;4979519;28;19914;-84
2021/06/26 10:37:59;;;;;;;;;;;;;;;;;;4963541;28;19921;-84
2021/06/26 10:40:33;;;;;;;;;;;;;;;;;;4979420;28;20008;-84
2021/06/26 10:42:58;;;;;;;;;;;;;;;;;;4963391;28;19968;-84
2021/06/26 10:45:24;;;;;;;;;;;;;;;;;;4979871;28;19918;-84
2021/06/26 10:47:49;;;;;;;;;;;;;;;;;;4963134;28;20397;-84
2021/06/26 10:50:14;;;;;;;;;;;;;;;;;;4963586;28;20400;-84
2021/06/26 10:52:46;;;;;;;;;;;;;;;;;;4980739;28;19918;-84
2021/06/26 10:55:12;;;;;;;;;;;;;;;;;;4963506;28;19915;-84
2021/06/26 10:57:44;;;;;;;;;;;;;;;;;;4962917;28;19919;-84
2021/06/26 11:00:10;;;;;;;;;;;;;;;;;;4979290;28;19914;-84
2021/06/26 11:02:39;;;;;;;;;;;;;;;;;;4963480;28;20001;-84
2021/06/26 11:05:05;;;;;;;;;;;;;;;;;;4963028;28;20385;-84
2021/06/26 11:07:33;;;;;;;;;;;;;;;;;;4978640;28;19971;-84
2021/06/26 11:10:03;;;;;;;;;;;;;;;;;;4963290;28;20001;-84
2021/06/26 11:12:35;;;;;;;;;;;;;;;;;;4971169;28;19921;-84
2021/06/26 11:15:01;;;;;;;;;;;;;;;;;;4981834;28;19949;-84
2021/06/26 11:17:35;;;;;;;;;;;;;;;;;;4998028;28;19921;-84
2021/06/26 11:20:00;;;;;;;;;;;;;;;;;;4997813;28;20362;-84
2021/06/26 11:22:26;;;;;;;;;;;;;;;;;;4962634;28;19997;-84
2021/06/26 11:24:51;;;;;;;;;;;;;;;;;;4962399;28;19922;-84
2021/06/26 11:27:19;;;;;;;;;;;;;;;;;;4990115;28;19918;-84
2021/06/26 11:29:45;;;;;;;;;;;;;;;;;;4984651;28;19926;-84
2021/06/26 11:32:20;;;;;;;;;;;;;;;;;;4993750;28;19914;-81
2021/06/26 11:35:11;;;;;;;;;;;;;;;;;;4982619;28;19944;-79
2021/06/26 11:37:36;;;;;;;;;;;;;;;;;;4979438;28;19914;-82
2021/06/26 11:40:02;;;;;;;;;;;;;;;;;;4981292;28;20444;-81
2021/06/26 11:42:28;;;;;;;;;;;;;;;;;;4980914;28;19920;-82
2021/06/26 11:44:53;;;;;;;;;;;;;;;;;;4977274;28;19914;-83
2021/06/26 11:47:18;;;;;;;;;;;;;;;;;;4975078;28;19921;-82
2021/06/26 11:49:46;;;;;;;;;;;;;;;;;;4996483;28;20038;-82
2021/06/26 11:52:15;;;;;;;;;;;;;;;;;;4980202;28;20387;-81
2021/06/26 11:54:40;;;;;;;;;;;;;;;;;;4997039;28;20304;-82
2021/06/26 11:57:08;;;;;;;;;;;;;;;;;;4996309;28;19913;-82
2021/06/26 11:59:40;;;;;;;;;;;;;;;;;;4974810;28;19924;-82
2021/06/26 12:02:05;;;;;;;;;;;;;;;;;;4979611;28;19964;-81
2021/06/26 12:04:31;;;;;;;;;;;;;;;;;;4979801;28;19917;-82
2021/06/26 12:06:57;;;;;;;;;;;;;;;;;;4980113;28;19914;-82
2021/06/26 12:09:23;;;;;;;;;;;;;;;;;;4970635;28;20029;-82
2021/06/26 12:11:48;;;;;;;;;;;;;;;;;;4960432;28;19914;-82
2021/06/26 12:14:13;;;;;;;;;;;;;;;;;;4968931;28;19913;-82
2021/06/26 12:16:39;;;;;;;;;;;;;;;;;;4964341;28;20404;-82
2021/06/26 12:19:08;;;;;;;;;;;;;;;;;;4980146;28;19949;-82
2021/06/26 12:21:49;;;;;;;;;;;;;;;;;;4980128;28;20028;-82
2021/06/26 12:24:24;;;;;;;;;;;;;;;;;;4959942;28;19945;-81
2021/06/26 12:27:00;;;;;;;;;;;;;;;;;;4995506;28;19930;-80
2021/06/26 12:29:25;;;;;;;;;;;;;;;;;;4968831;28;20356;-82
2021/06/26 12:31:50;;;;;;;;;;;;;;;;;;4960086;28;19918;-81
2021/06/26 12:34:15;;;;;;;;;;;;;;;;;;4982652;28;19918;-81
2021/06/26 12:36:49;;;;;;;;;;;;;;;;;;4997044;28;20419;-81
2021/06/26 12:39:18;;;;;;;;;;;;;;;;;;4980168;28;20385;-81
2021/06/26 12:41:44;;;;;;;;;;;;;;;;;;4993332;28;19921;-82
2021/06/26 12:44:17;;;;;;;;;;;;;;;;;;4979358;28;19984;-82
2021/06/26 12:46:42;;;;;;;;;;;;;;;;;;4996080;28;20012;-82
2021/06/26 12:49:09;;;;;;;;;;;;;;;;;;4980620;28;19957;-81
2021/06/26 12:51:37;;;;;;;;;;;;;;;;;;4994990;28;19922;-81
2021/06/26 12:54:09;;;;;;;;;;;;;;;;;;4978762;28;20338;-82
2021/06/26 12:56:36;;;;;;;;;;;;;;;;;;4979341;28;19917;-82
2021/06/26 12:59:02;;;;;;;;;;;;;;;;;;4978207;28;19947;-83
2021/06/26 13:01:46;;;;;;;;;;;;;;;;;;4994448;28;19914;-81
2021/06/26 13:04:15;;;;;;;;;;;;;;;;;;4959629;28;19918;-81
2021/06/26 13:06:50;;;;;;;;;;;;;;;;;;4974821;28;19921;-81
2021/06/26 13:09:16;;;;;;;;;;;;;;;;;;4986459;28;19929;-82
2021/06/26 13:11:43;;;;;;;;;;;;;;;;;;4972269;28;19964;-81
2021/06/26 13:14:09;;;;;;;;;;;;;;;;;;4973005;28;19915;-82
2021/06/26 13:16:35;;;;;;;;;;;;;;;;;;4988834;28;19915;-81
2021/06/26 13:19:04;;;;;;;;;;;;;;;;;;4978209;28;19914;-82
2021/06/26 13:21:29;;;;;;;;;;;;;;;;;;4978900;28;19920;-82
2021/06/26 13:23:57;;;;;;;;;;;;;;;;;;4978722;28;19922;-82
2021/06/26 13:26:23;;;;;;;;;;;;;;;;;;4994936;28;20398;-82
2021/06/26 13:28:49;;;;;;;;;;;;;;;;;;4978341;28;19918;-82
2021/06/26 13:31:14;;;;;;;;;;;;;;;;;;4978426;28;20403;-82
2021/06/26 13:33:39;;;;;;;;;;;;;;;;;;4966440;28;19914;-82
2021/06/26 13:36:04;;;;;;;;;;;;;;;;;;4979443;28;19917;-82
2021/06/26 13:38:30;;;;;;;;;;;;;;;;;;4980463;28;19936;-81
2021/06/26 13:40:55;;;;;;;;;;;;;;;;;;4995641;28;19922;-81
2021/06/26 13:43:20;;;;;;;;;;;;;;;;;;4991651;28;19970;-81
2021/06/26 13:45:46;;;;;;;;;;;;;;;;;;4960047;28;19914;-81
2021/06/26 13:48:11;;;;;;;;;;;;;;;;;;4970563;28;19926;-81
2021/06/26 13:50:36;;;;;;;;;;;;;;;;;;4995220;28;19918;-81
2021/06/26 13:53:01;;;;;;;;;;;;;;;;;;4979235;28;19964;-81
2021/06/26 13:55:27;;;;;;;;;;;;;;;;;;4979425;28;19914;-80
2021/06/26 13:57:52;;;;;;;;;;;;;;;;;;4982897;28;19921;-82
2021/06/26 14:00:19;;;;;;;;;;;;;;;;;;4983212;28;19983;-82
2021/06/26 14:02:44;;;;;;;;;;;;;;;;;;4983273;28;19918;-81
2021/06/26 14:05:11;;;;;;;;;;;;;;;;;;4968608;28;20065;-81
2021/06/26 14:07:36;;;;;;;;;;;;;;;;;;4963073;28;19973;-81
2021/06/26 14:10:02;;;;;;;;;;;;;;;;;;4977120;28;19921;-81
2021/06/26 14:12:27;;;;;;;;;;;;;;;;;;4998336;28;20266;-81
2021/06/26 14:14:52;;;;;;;;;;;;;;;;;;4982282;28;19914;-81
2021/06/26 14:17:17;;;;;;;;;;;;;;;;;;4997123;28;19913;-80
2021/06/26 14:19:42;;;;;;;;;;;;;;;;;;4999515;28;20424;-81
2021/06/26 14:22:08;;;;;;;;;;;;;;;;;;4982502;28;19918;-80
2021/06/26 14:24:33;;;;;;;;;;;;;;;;;;4985764;28;19937;-80
2021/06/26 14:26:58;;;;;;;;;;;;;;;;;;4998834;28;20332;-80
2021/06/26 14:29:23;;;;;;;;;;;;;;;;;;4982485;28;20363;-80
2021/06/26 14:31:48;;;;;;;;;;;;;;;;;;4975242;28;19918;-81
2021/06/26 14:34:14;;;;;;;;;;;;;;;;;;4963782;28;19929;-81
2021/06/26 14:36:39;;;;;;;;;;;;;;;;;;4975477;28;19914;-80
2021/06/26 14:39:04;;;;;;;;;;;;;;;;;;4973501;28;19921;-80
2021/06/26 14:41:29;;;;;;;;;;;;;;;;;;4981315;28;19914;-80
2021/06/26 14:43:55;;;;;;;;;;;;;;;;;;4997608;28;19917;-80
2021/06/26 14:46:20;;;;;;;;;;;;;;;;;;4981738;28;19925;-80
2021/06/26 14:48:45;;;;;;;;;;;;;;;;;;4981451;28;20396;-80
2021/06/26 14:51:10;;;;;;;;;;;;;;;;;;4959713;28;19921;-80
2021/06/26 14:53:37;;;;;;;;;;;;;;;;;;4979697;28;19915;-80
2021/06/26 14:56:02;;;;;;;;;;;;;;;;;;4962600;28;19918;-80
2021/06/26 14:58:27;;;;;;;;;;;;;;;;;;4982296;28;20012;-80
2021/06/26 15:00:53;;;;;;;;;;;;;;;;;;4983209;28;19917;-80
2021/06/26 15:03:19;;;;;;;;;;;;;;;;;;4983040;28;19913;-80
2021/06/26 15:05:44;;;;;;;;;;;;;;;;;;4952031;28;19918;-81
2021/06/26 15:08:09;;;;;;;;;;;;;;;;;;4969545;28;19929;-81
2021/06/26 15:10:34;;;;;;;;;;;;;;;;;;4994591;28;19917;-83
2021/06/26 15:12:59;;;;;;;;;;;;;;;;;;4972375;28;19925;-80
2021/06/26 15:15:25;;;;;;;;;;;;;;;;;;4973969;28;20381;-81
2021/06/26 15:17:50;;;;;;;;;;;;;;;;;;4965640;28;19941;-78
2021/06/26 15:20:15;;;;;;;;;;;;;;;;;;4987072;28;20355;-81
2021/06/26 15:22:41;;;;;;;;;;;;;;;;;;4960541;28;19941;-83
2021/06/26 15:25:06;;;;;;;;;;;;;;;;;;4980573;28;19925;-84
2021/06/26 15:27:31;;;;;;;;;;;;;;;;;;4962559;28;19918;-82
2021/06/26 15:29:56;;;;;;;;;;;;;;;;;;4979061;28;19918;-82
2021/06/26 15:32:22;;;;;;;;;;;;;;;;;;4959841;28;19961;-81
2021/06/26 15:34:47;;;;;;;;;;;;;;;;;;4994035;28;20310;-81
2021/06/26 15:37:16;;;;;;;;;;;;;;;;;;4994426;28;20004;-81
2021/06/26 15:39:41;;;;;;;;;;;;;;;;;;4971662;28;19918;-81
2021/06/26 15:42:06;;;;;;;;;;;;;;;;;;4960003;28;20289;-82
2021/06/26 15:44:31;;;;;;;;;;;;;;;;;;4976714;28;19921;-82
2021/06/26 15:46:56;;;;;;;;;;;;;;;;;;4960937;28;19918;-85
2021/06/26 15:49:22;;;;;;;;;;;;;;;;;;4978215;28;19976;-81
2021/06/26 15:51:47;;;;;;;;;;;;;;;;;;4994413;28;19979;-83
2021/06/26 15:54:12;;;;;;;;;;;;;;;;;;4967434;28;19922;-83
2021/06/26 15:56:37;;;;;;;;;;;;;;;;;;4958354;28;19918;-83
2021/06/26 15:59:04;;;;;;;;;;;;;;;;;;4958945;28;20028;-83
2021/06/26 16:01:29;;;;;;;;;;;;;;;;;;4959905;28;19918;-84
2021/06/26 16:03:54;;;;;;;;;;;;;;;;;;4976735;28;19982;-83
2021/06/26 16:06:20;;;;;;;;;;;;;;;;;;4960130;28;19942;-83
2021/06/26 16:08:45;;;;;;;;;;;;;;;;;;4969758;28;20402;-83
2021/06/26 16:11:10;;;;;;;;;;;;;;;;;;4978203;28;19964;-83
2021/06/26 16:13:36;;;;;;;;;;;;;;;;;;4978275;28;19914;-83
2021/06/26 16:16:01;;;;;;;;;;;;;;;;;;4978140;28;19920;-79
2021/06/26 16:18:26;;;;;;;;;;;;;;;;;;4994121;28;20008;-79
2021/06/26 16:20:52;;;;;;;;;;;;;;;;;;4977751;28;19917;-79
2021/06/26 16:23:17;;;;;;;;;;;;;;;;;;4993620;28;19933;-81
2021/06/26 16:25:42;;;;;;;;;;;;;;;;;;4977521;28;19925;-81
2021/06/26 16:28:07;;;;;;;;;;;;;;;;;;4966793;28;19965;-81
2021/06/26 16:30:32;;;;;;;;;;;;;;;;;;4990432;28;20027;-83
2021/06/26 16:32:58;;;;;;;;;;;;;;;;;;4994042;28;20304;-82
2021/06/26 16:35:23;;;;;;;;;;;;;;;;;;4977787;28;19917;-82
2021/06/26 16:38:01;;;;;;;;;;;;;;;;;;4977594;28;20009;-82
2021/06/26 16:40:27;;;;;;;;;;;;;;;;;;4979776;28;19921;-83